Time,TemperatureF,DewpointF,PressureIn,WindDirection,WindDirectionDegrees,WindSpeedMPH,WindSpeedGustMPH,Humidity,HourlyPrecipIn,Conditions,Clouds,dailyrainin,SolarRadiationWatts/m^2,SoftwareType,DateUTC
2013-04-14 00:00:00,72.1,70.7,29.99,North,0,3.1,3.8,95,0.00,,,-99.99,5.0,meteobridge,2013-04-14 04:00:00,
2013-04-14 00:01:00,72.1,70.7,29.99,North,0,3.1,3.1,95,0.00,,,0.00,5.0,meteobridge,2013-04-14 04:01:00,
2013-04-14 00:07:00,72.0,70.7,29.99,SE,135,3.8,3.8,96,0.00,,,0.00,5.0,meteobridge,2013-04-14 04:07:00,
2013-04-14 00:12:00,72.0,70.7,29.98,NW,315,2.2,4.5,96,0.00,,,0.00,5.0,meteobridge,2013-04-14 04:12:00,
2013-04-14 00:17:00,71.6,70.3,29.99,NE,45,3.1,3.8,96,0.00,,,0.00,,meteobridge,2013-04-14 04:17:00,
2013-04-14 00:22:00,71.6,70.3,29.99,North,0,3.1,3.1,96,0.00,,,0.00,,meteobridge,2013-04-14 04:22:00,
2013-04-14 00:27:00,71.6,70.3,29.99,North,0,3.1,3.1,96,0.00,,,0.00,,meteobridge,2013-04-14 04:27:00,
2013-04-14 00:32:00,71.6,70.3,29.99,East,90,1.6,2.2,96,0.00,,,0.00,,meteobridge,2013-04-14 04:32:00,
2013-04-14 00:38:00,71.4,70.2,29.98,NW,315,1.6,3.1,96,0.00,,,0.00,,meteobridge,2013-04-14 04:38:00,
2013-04-14 00:43:00,71.4,70.0,29.98,NW,315,3.1,3.8,95,0.00,,,0.00,,meteobridge,2013-04-14 04:43:00,
2013-04-14 00:48:00,71.4,70.0,29.98,NE,45,1.6,2.2,95,0.00,,,0.00,,meteobridge,2013-04-14 04:48:00,
2013-04-14 00:53:00,71.2,69.8,29.98,NE,45,3.8,3.8,95,0.00,,,0.00,,meteobridge,2013-04-14 04:53:00,
2013-04-14 00:58:00,71.2,70.0,29.98,NE,45,2.2,2.2,96,0.00,,,0.00,,meteobridge,2013-04-14 04:58:00,
2013-04-14 01:03:00,71.1,69.8,29.97,South,180,2.2,3.1,96,0.00,,,0.00,,meteobridge,2013-04-14 05:03:00,
2013-04-14 01:09:00,71.1,69.6,29.97,North,0,0.0,2.2,95,0.00,,,0.00,,meteobridge,2013-04-14 05:09:00,
2013-04-14 01:14:00,70.9,69.6,29.97,NE,45,1.6,3.1,96,0.00,,,0.00,,meteobridge,2013-04-14 05:14:00,
2013-04-14 01:19:00,70.9,69.6,29.98,NE,45,0.7,1.6,96,0.00,,,0.00,,meteobridge,2013-04-14 05:19:00,
2013-04-14 01:24:00,70.9,69.6,29.98,SSE,158,1.6,1.6,96,0.00,,,0.00,,meteobridge,2013-04-14 05:24:00,
2013-04-14 01:29:00,70.7,69.3,29.98,North,0,0.7,2.2,95,0.00,,,0.00,,meteobridge,2013-04-14 05:29:00,
2013-04-14 01:34:00,70.9,69.4,29.98,West,270,0.7,2.2,95,0.00,,,0.00,,meteobridge,2013-04-14 05:34:00,
2013-04-14 01:40:00,70.9,69.4,29.98,SW,225,1.6,1.6,95,0.00,,,0.00,,meteobridge,2013-04-14 05:40:00,
2013-04-14 01:45:00,70.9,69.4,29.97,NW,315,0.7,0.7,95,0.00,,,0.00,,meteobridge,2013-04-14 05:45:00,
2013-04-14 01:50:00,70.7,69.3,29.97,East,90,1.6,1.6,95,0.00,,,0.00,,meteobridge,2013-04-14 05:50:00,
2013-04-14 01:55:00,70.7,69.3,29.97,NE,45,1.6,2.2,95,0.00,,,0.00,,meteobridge,2013-04-14 05:55:00,
2013-04-14 02:00:00,70.7,69.3,29.98,East,90,1.6,1.6,95,0.00,,,0.00,,meteobridge,2013-04-14 06:00:00,
2013-04-14 02:05:00,70.5,69.3,29.98,South,180,1.6,1.6,96,0.00,,,0.00,,meteobridge,2013-04-14 06:05:00,
2013-04-14 02:11:00,70.5,69.3,29.98,NW,315,1.6,1.6,96,0.00,,,0.00,,meteobridge,2013-04-14 06:11:00,
2013-04-14 02:16:00,70.5,69.6,29.97,NE,45,3.1,3.1,97,0.00,,,0.00,5.0,meteobridge,2013-04-14 06:16:00,
2013-04-14 02:21:00,70.5,70.0,29.97,SW,225,1.6,2.2,98,0.00,,,0.00,5.0,meteobridge,2013-04-14 06:21:00,
2013-04-14 02:26:00,70.5,70.0,29.97,NNE,23,2.2,3.1,98,0.00,,,0.00,5.0,meteobridge,2013-04-14 06:26:00,
2013-04-14 02:31:00,70.5,70.2,29.96,East,90,3.1,3.1,99,0.00,,,0.00,5.0,meteobridge,2013-04-14 06:31:00,
2013-04-14 02:36:00,70.5,70.2,29.96,East,90,4.5,5.4,99,0.00,,,0.00,5.0,meteobridge,2013-04-14 06:36:00,
2013-04-14 02:42:00,70.5,70.2,29.96,East,90,6.0,6.0,99,0.00,,,0.00,5.0,meteobridge,2013-04-14 06:42:00,
2013-04-14 02:47:00,70.5,70.2,29.96,East,90,6.0,6.9,99,0.00,,,0.00,5.0,meteobridge,2013-04-14 06:47:00,
2013-04-14 02:52:00,70.3,70.0,29.96,East,90,3.8,4.5,99,0.00,,,0.00,5.0,meteobridge,2013-04-14 06:52:00,
2013-04-14 02:57:00,70.3,70.0,29.96,ENE,68,3.8,3.8,99,0.00,,,0.00,5.0,meteobridge,2013-04-14 06:57:00,
2013-04-14 03:02:00,70.3,70.0,29.96,North,0,3.8,6.0,99,0.00,,,0.00,5.0,meteobridge,2013-04-14 07:02:00,
2013-04-14 03:07:00,70.3,70.0,29.96,East,90,3.1,3.1,99,0.00,,,0.00,5.0,meteobridge,2013-04-14 07:07:00,
2013-04-14 03:13:00,70.5,70.2,29.96,East,90,3.8,3.8,99,0.00,,,0.00,5.0,meteobridge,2013-04-14 07:13:00,
2013-04-14 03:18:00,70.5,70.2,29.96,East,90,3.1,4.5,99,0.00,,,0.00,5.0,meteobridge,2013-04-14 07:18:00,
2013-04-14 03:23:00,70.5,70.2,29.96,East,90,3.8,4.5,99,0.00,,,0.00,5.0,meteobridge,2013-04-14 07:23:00,
2013-04-14 03:28:00,70.5,70.2,29.96,NE,45,4.5,4.5,99,0.00,,,0.00,5.0,meteobridge,2013-04-14 07:28:00,
2013-04-14 03:33:00,70.5,70.2,29.96,East,90,3.1,4.5,99,0.00,,,0.00,5.0,meteobridge,2013-04-14 07:33:00,
2013-04-14 03:38:00,70.5,70.2,29.96,East,90,5.4,5.4,99,0.00,,,0.00,5.0,meteobridge,2013-04-14 07:38:00,
2013-04-14 03:44:00,70.5,70.2,29.96,ENE,68,3.8,3.8,99,0.00,,,0.00,5.0,meteobridge,2013-04-14 07:44:00,
2013-04-14 03:49:00,70.7,70.3,29.96,East,90,5.4,6.0,99,0.00,,,0.00,5.0,meteobridge,2013-04-14 07:49:00,
2013-04-14 03:54:00,70.7,70.3,29.95,East,90,3.8,4.5,99,0.00,,,0.00,5.0,meteobridge,2013-04-14 07:54:00,
2013-04-14 03:59:00,70.7,70.3,29.95,East,90,4.5,6.0,99,0.00,,,0.00,5.0,meteobridge,2013-04-14 07:59:00,
2013-04-14 04:04:00,70.7,70.3,29.94,SSE,158,3.8,6.9,99,0.00,,,0.00,5.0,meteobridge,2013-04-14 08:04:00,
2013-04-14 04:09:00,70.7,70.3,29.94,East,90,8.3,8.3,99,0.00,,,0.00,5.0,meteobridge,2013-04-14 08:09:00,
2013-04-14 04:14:00,70.7,70.3,29.94,East,90,4.5,6.9,99,0.00,,,0.00,5.0,meteobridge,2013-04-14 08:14:00,
2013-04-14 04:20:00,70.9,70.5,29.94,ESE,113,5.4,6.9,99,0.00,,,0.00,5.0,meteobridge,2013-04-14 08:20:00,
2013-04-14 04:25:00,71.1,70.7,29.94,ENE,68,5.4,5.4,99,0.00,,,0.00,5.0,meteobridge,2013-04-14 08:25:00,
2013-04-14 04:30:00,71.1,70.7,29.94,East,90,6.0,6.0,99,0.00,,,0.00,,meteobridge,2013-04-14 08:30:00,
2013-04-14 04:35:00,71.2,70.9,29.94,East,90,2.2,6.9,99,0.00,,,0.00,,meteobridge,2013-04-14 08:35:00,
2013-04-14 04:40:00,71.2,70.9,29.94,ESE,113,7.6,7.6,99,0.00,,,0.00,,meteobridge,2013-04-14 08:40:00,
2013-04-14 04:45:00,71.2,70.9,29.93,East,90,7.6,7.6,99,0.00,,,0.00,,meteobridge,2013-04-14 08:45:00,
2013-04-14 04:51:00,71.2,70.9,29.93,East,90,5.4,5.4,99,0.00,,,0.00,,meteobridge,2013-04-14 08:51:00,
2013-04-14 04:56:00,71.2,70.9,29.93,SE,135,6.9,7.6,99,0.00,,,0.00,,meteobridge,2013-04-14 08:56:00,
2013-04-14 05:01:00,71.2,70.9,29.93,East,90,4.5,6.0,99,0.00,,,0.00,,meteobridge,2013-04-14 09:01:00,
2013-04-14 05:06:00,71.2,70.9,29.93,ESE,113,5.4,6.0,99,0.00,,,0.00,,meteobridge,2013-04-14 09:06:00,
2013-04-14 05:11:00,71.2,70.9,29.94,SE,135,4.5,6.9,99,0.00,,,0.00,,meteobridge,2013-04-14 09:11:00,
2013-04-14 05:16:00,71.2,70.9,29.94,South,180,3.8,8.3,99,0.00,,,0.00,,meteobridge,2013-04-14 09:16:00,
2013-04-14 05:22:00,71.4,71.1,29.94,East,90,4.5,4.5,99,0.00,,,0.00,,meteobridge,2013-04-14 09:22:00,
2013-04-14 05:27:00,71.4,71.1,29.93,SE,135,5.4,5.4,99,0.00,,,0.00,,meteobridge,2013-04-14 09:27:00,
2013-04-14 05:32:00,71.4,71.1,29.93,East,90,6.0,6.9,99,0.00,,,0.00,,meteobridge,2013-04-14 09:32:00,
2013-04-14 05:37:00,71.4,71.1,29.93,ESE,113,3.1,6.9,99,0.00,,,0.00,,meteobridge,2013-04-14 09:37:00,
2013-04-14 05:42:00,71.4,71.1,29.93,East,90,7.6,7.6,99,0.00,,,0.00,,meteobridge,2013-04-14 09:42:00,
2013-04-14 05:47:00,71.4,71.1,29.93,East,90,6.0,6.0,99,0.00,,,0.00,,meteobridge,2013-04-14 09:47:00,
2013-04-14 05:52:00,71.4,71.1,29.93,East,90,5.4,6.9,99,0.00,,,0.00,,meteobridge,2013-04-14 09:52:00,
2013-04-14 05:58:00,71.4,71.1,29.93,ESE,113,8.3,8.3,99,0.00,,,0.00,,meteobridge,2013-04-14 09:58:00,
2013-04-14 06:03:00,71.6,71.2,29.93,East,90,6.9,8.3,99,0.00,,,0.00,,meteobridge,2013-04-14 10:03:00,
2013-04-14 06:08:00,71.6,71.2,29.93,South,180,5.4,7.6,99,0.00,,,0.00,,meteobridge,2013-04-14 10:08:00,
2013-04-14 06:13:00,71.6,71.2,29.93,SE,135,3.8,6.0,99,0.00,,,0.00,,meteobridge,2013-04-14 10:13:00,
2013-04-14 06:18:00,71.6,71.2,29.93,East,90,4.5,6.9,99,0.00,,,0.00,,meteobridge,2013-04-14 10:18:00,
2013-04-14 06:23:00,71.8,71.4,29.93,East,90,5.4,6.9,99,0.00,,,0.00,,meteobridge,2013-04-14 10:23:00,
2013-04-14 06:28:00,71.8,71.4,29.93,East,90,4.5,4.5,99,0.00,,,0.00,,meteobridge,2013-04-14 10:28:00,
2013-04-14 06:34:00,71.6,71.2,29.93,East,90,5.4,6.0,99,0.00,,,0.00,,meteobridge,2013-04-14 10:34:00,
2013-04-14 06:39:00,71.6,71.2,29.93,NE,45,4.5,9.2,99,0.00,,,0.00,,meteobridge,2013-04-14 10:39:00,
2013-04-14 06:44:00,71.6,71.2,29.93,East,90,5.4,5.4,99,0.00,,,0.00,,meteobridge,2013-04-14 10:44:00,
2013-04-14 06:49:00,71.4,71.1,29.93,East,90,6.0,6.9,99,0.00,,,0.00,,meteobridge,2013-04-14 10:49:00,
2013-04-14 06:54:00,71.4,71.1,29.94,South,180,3.8,6.0,99,0.00,,,0.00,,meteobridge,2013-04-14 10:54:00,
2013-04-14 06:59:00,71.4,71.1,29.94,East,90,9.2,9.2,99,0.00,,,0.00,,meteobridge,2013-04-14 10:59:00,
2013-04-14 07:05:00,71.4,71.1,29.94,East,90,6.9,6.9,99,0.00,,,0.00,,meteobridge,2013-04-14 11:05:00,
2013-04-14 07:10:00,71.4,71.1,29.94,SE,135,6.0,6.9,99,0.00,,,0.00,,meteobridge,2013-04-14 11:10:00,
2013-04-14 07:15:00,71.4,71.1,29.94,East,90,6.9,8.3,99,0.00,,,0.00,,meteobridge,2013-04-14 11:15:00,
2013-04-14 07:20:00,71.4,71.1,29.94,NNE,23,6.0,6.0,99,0.00,,,0.00,,meteobridge,2013-04-14 11:20:00,
2013-04-14 07:25:00,71.4,71.1,29.94,East,90,5.4,6.0,99,0.00,,,0.00,,meteobridge,2013-04-14 11:25:00,
2013-04-14 07:30:00,71.4,71.1,29.94,SE,135,3.1,3.1,99,0.00,,,0.00,,meteobridge,2013-04-14 11:30:00,
2013-04-14 07:36:00,71.6,71.2,29.94,ENE,68,5.4,5.4,99,0.00,,,0.00,,meteobridge,2013-04-14 11:36:00,
2013-04-14 07:41:00,71.6,71.2,29.94,SE,135,5.4,6.9,99,0.00,,,0.00,,meteobridge,2013-04-14 11:41:00,
2013-04-14 07:46:00,71.6,71.2,29.94,ENE,68,7.6,8.3,99,0.00,,,0.00,,meteobridge,2013-04-14 11:46:00,
2013-04-14 07:51:00,71.6,71.2,29.94,East,90,6.0,6.0,99,0.00,,,0.00,,meteobridge,2013-04-14 11:51:00,
2013-04-14 07:56:00,71.6,71.2,29.94,South,180,6.9,9.8,99,0.00,,,0.00,,meteobridge,2013-04-14 11:56:00,
2013-04-14 08:01:00,71.4,71.1,29.94,SE,135,7.6,7.6,99,0.00,,,0.00,,meteobridge,2013-04-14 12:01:00,
2013-04-14 08:07:00,71.2,70.9,29.94,ENE,68,6.9,6.9,99,0.00,,,0.00,,meteobridge,2013-04-14 12:07:00,
2013-04-14 08:12:00,71.4,71.1,29.95,ESE,113,7.6,7.6,99,0.00,,,0.00,,meteobridge,2013-04-14 12:12:00,
2013-04-14 08:17:00,71.6,71.2,29.95,East,90,6.0,9.2,99,0.00,,,0.00,,meteobridge,2013-04-14 12:17:00,
2013-04-14 08:22:00,72.0,71.6,29.95,East,90,3.1,5.4,99,0.00,,,0.00,,meteobridge,2013-04-14 12:22:00,
2013-04-14 08:27:00,72.3,72.0,29.95,East,90,6.9,6.9,99,0.00,,,0.00,,meteobridge,2013-04-14 12:27:00,
2013-04-14 08:32:00,72.5,72.1,29.95,SSE,158,5.4,6.0,99,0.00,,,0.00,,meteobridge,2013-04-14 12:32:00,
2013-04-14 08:38:00,72.7,72.3,29.95,South,180,6.0,6.0,99,0.00,,,0.00,,meteobridge,2013-04-14 12:38:00,
2013-04-14 08:43:00,73.2,72.9,29.96,East,90,6.0,6.0,99,0.00,,,0.00,,meteobridge,2013-04-14 12:43:00,
2013-04-14 08:48:00,73.4,73.0,29.96,SE,135,6.9,6.9,99,0.00,,,0.00,,meteobridge,2013-04-14 12:48:00,
2013-04-14 08:53:00,73.8,73.4,29.96,East,90,5.4,6.0,99,0.00,,,0.00,,meteobridge,2013-04-14 12:53:00,
2013-04-14 08:58:00,74.1,73.8,29.96,SE,135,7.6,7.6,99,0.00,,,0.00,,meteobridge,2013-04-14 12:58:00,
2013-04-14 09:03:00,74.7,74.3,29.95,ESE,113,5.4,5.4,99,0.00,,,0.00,,meteobridge,2013-04-14 13:03:00,
2013-04-14 09:09:00,74.8,74.5,29.96,East,90,6.9,9.2,99,0.00,,,0.00,,meteobridge,2013-04-14 13:09:00,
2013-04-14 09:14:00,75.7,75.4,29.96,East,90,3.8,5.4,99,0.00,,,0.00,,meteobridge,2013-04-14 13:14:00,
2013-04-14 09:19:00,76.1,75.7,29.96,South,180,4.5,6.9,99,0.00,,,0.00,,meteobridge,2013-04-14 13:19:00,
2013-04-14 09:24:00,76.3,75.9,29.96,East,90,8.3,8.3,99,0.00,,,0.00,,meteobridge,2013-04-14 13:24:00,
2013-04-14 09:29:00,76.8,76.5,29.96,SE,135,4.5,6.9,99,0.00,,,0.00,,meteobridge,2013-04-14 13:29:00,
2013-04-14 09:34:00,77.4,77.0,29.96,South,180,3.1,6.0,99,0.00,,,0.00,,meteobridge,2013-04-14 13:34:00,
2013-04-14 09:40:00,77.7,77.2,29.96,SE,135,7.6,8.3,98,0.00,,,0.00,,meteobridge,2013-04-14 13:40:00,
2013-04-14 09:45:00,78.1,76.5,29.96,SSE,158,9.2,9.2,95,0.00,,,0.00,,meteobridge,2013-04-14 13:45:00,
2013-04-14 09:50:00,78.6,77.0,29.96,SE,135,4.5,8.3,95,0.00,,,0.00,,meteobridge,2013-04-14 13:50:00,
2013-04-14 09:55:00,79.2,77.4,29.96,South,180,4.5,8.3,94,0.00,,,0.00,,meteobridge,2013-04-14 13:55:00,
2013-04-14 10:00:00,80.1,76.8,29.96,SSE,158,6.9,6.9,90,0.00,,,0.00,,meteobridge,2013-04-14 14:00:00,
2013-04-14 10:05:00,80.4,76.8,29.96,SSE,158,6.9,6.9,89,0.00,,,0.00,,meteobridge,2013-04-14 14:05:00,
2013-04-14 10:11:00,80.6,76.6,29.96,South,180,4.5,6.9,88,0.00,,,0.00,,meteobridge,2013-04-14 14:11:00,
2013-04-14 10:16:00,81.0,77.4,29.96,South,180,4.5,4.5,89,0.00,,,0.00,,meteobridge,2013-04-14 14:16:00,
2013-04-14 10:21:00,81.0,76.5,29.96,South,180,3.8,4.5,86,0.00,,,0.00,,meteobridge,2013-04-14 14:21:00,
2013-04-14 10:26:00,81.1,76.5,29.96,South,180,4.5,4.5,86,0.00,,,0.00,,meteobridge,2013-04-14 14:26:00,
2013-04-14 10:31:00,81.5,76.3,29.96,SSE,158,7.6,7.6,84,0.00,,,0.00,,meteobridge,2013-04-14 14:31:00,
2013-04-14 10:36:00,81.7,75.6,29.96,East,90,6.0,9.8,82,0.00,,,0.00,,meteobridge,2013-04-14 14:36:00,
2013-04-14 10:41:00,81.7,75.9,29.96,South,180,4.5,6.9,83,0.00,,,0.00,,meteobridge,2013-04-14 14:41:00,
2013-04-14 10:47:00,82.2,75.7,29.96,West,270,6.0,6.0,81,0.00,,,0.00,,meteobridge,2013-04-14 14:47:00,
2013-04-14 10:52:00,82.4,75.9,29.96,SE,135,5.4,6.9,81,0.00,,,0.00,,meteobridge,2013-04-14 14:52:00,
2013-04-14 10:57:00,82.6,75.7,29.96,South,180,7.6,9.2,80,0.00,,,0.00,,meteobridge,2013-04-14 14:57:00,
2013-04-14 11:02:00,82.8,75.6,29.96,South,180,5.4,9.8,79,0.00,,,0.00,,meteobridge,2013-04-14 15:02:00,
2013-04-14 11:07:00,83.7,76.1,29.96,South,180,4.5,8.3,78,0.00,,,0.00,,meteobridge,2013-04-14 15:07:00,
2013-04-14 11:12:00,84.2,76.6,29.96,South,180,6.0,11.4,78,0.00,,,0.00,,meteobridge,2013-04-14 15:12:00,
2013-04-14 11:17:00,85.1,75.9,29.96,SW,225,7.6,7.6,74,0.00,,,0.00,,meteobridge,2013-04-14 15:17:00,
2013-04-14 11:23:00,84.9,74.8,29.96,SW,225,9.2,9.8,72,0.00,,,0.00,,meteobridge,2013-04-14 15:23:00,
2013-04-14 11:28:00,85.3,74.3,29.96,South,180,14.5,14.5,70,0.00,,,0.00,,meteobridge,2013-04-14 15:28:00,
2013-04-14 11:33:00,85.5,75.0,29.96,SW,225,3.1,7.6,71,0.00,,,0.00,,meteobridge,2013-04-14 15:33:00,
2013-04-14 11:38:00,86.2,75.2,29.96,South,180,3.1,7.6,70,0.00,,,0.00,,meteobridge,2013-04-14 15:38:00,
2013-04-14 11:43:00,86.2,74.3,29.97,South,180,5.4,6.9,68,0.00,,,0.00,,meteobridge,2013-04-14 15:43:00,
2013-04-14 11:48:00,85.8,73.9,29.97,SW,225,10.7,13.6,68,0.00,,,0.00,,meteobridge,2013-04-14 15:48:00,
2013-04-14 11:54:00,85.5,73.2,29.97,South,180,12.1,12.1,67,0.00,,,0.00,,meteobridge,2013-04-14 15:54:00,
2013-04-14 11:59:00,85.5,73.8,29.97,SW,225,4.5,6.9,68,0.00,,,0.00,,meteobridge,2013-04-14 15:59:00,
2013-04-14 12:04:00,85.5,74.1,29.96,South,180,7.6,8.3,69,0.00,,,0.00,,meteobridge,2013-04-14 16:04:00,
2013-04-14 12:09:00,86.0,74.7,29.97,South,180,6.0,9.8,69,0.00,,,0.00,,meteobridge,2013-04-14 16:09:00,
2013-04-14 12:14:00,86.4,75.4,29.97,SW,225,5.4,7.6,70,0.00,,,0.00,,meteobridge,2013-04-14 16:14:00,
2013-04-14 12:19:00,86.7,75.4,29.96,SW,225,9.2,9.2,69,0.00,,,0.00,,meteobridge,2013-04-14 16:19:00,
2013-04-14 12:25:00,86.9,74.7,29.96,South,180,9.2,9.8,67,0.00,,,0.00,,meteobridge,2013-04-14 16:25:00,
2013-04-14 12:30:00,86.7,74.5,29.96,South,180,8.3,8.3,67,0.00,,,0.00,,meteobridge,2013-04-14 16:30:00,
2013-04-14 12:35:00,86.9,74.7,29.96,WSW,248,7.6,9.2,67,0.00,,,0.00,,meteobridge,2013-04-14 16:35:00,
2013-04-14 12:40:00,86.4,74.5,29.96,South,180,4.5,8.3,68,0.00,,,0.00,5.0,meteobridge,2013-04-14 16:40:00,
2013-04-14 12:45:00,85.8,74.5,29.96,North,0,6.0,9.8,69,0.00,,,0.00,5.0,meteobridge,2013-04-14 16:45:00,
2013-04-14 12:50:00,85.5,75.4,29.95,South,180,8.3,8.3,72,0.00,,,0.00,42.0,meteobridge,2013-04-14 16:50:00,
2013-04-14 12:55:00,85.8,75.7,29.95,SSE,158,4.5,8.3,72,0.00,,,0.00,79.0,meteobridge,2013-04-14 16:55:00,
2013-04-14 13:01:00,85.8,74.8,29.95,SW,225,10.7,10.7,70,0.00,,,0.00,79.0,meteobridge,2013-04-14 17:01:00,
2013-04-14 13:06:00,85.5,75.0,29.95,SE,135,9.8,9.8,71,0.00,,,0.00,115.0,meteobridge,2013-04-14 17:06:00,
2013-04-14 13:11:00,85.6,75.6,29.95,SW,225,9.2,9.2,72,0.00,,,0.00,115.0,meteobridge,2013-04-14 17:11:00,
2013-04-14 13:16:00,86.0,75.6,29.94,ESE,113,13.0,13.0,71,0.00,,,0.00,115.0,meteobridge,2013-04-14 17:16:00,
2013-04-14 13:22:00,85.8,74.8,29.93,SE,135,7.6,13.0,70,0.00,,,0.00,115.0,meteobridge,2013-04-14 17:22:00,
2013-04-14 13:27:00,85.5,74.5,29.92,South,180,14.5,14.5,70,0.00,,,0.00,188.0,meteobridge,2013-04-14 17:27:00,
2013-04-14 13:32:00,85.3,74.3,29.92,South,180,6.0,12.1,70,0.00,,,0.00,188.0,meteobridge,2013-04-14 17:32:00,
2013-04-14 13:37:00,85.1,75.0,29.93,South,180,5.4,8.3,72,0.00,,,0.00,188.0,meteobridge,2013-04-14 17:37:00,
2013-04-14 13:42:00,85.8,75.7,29.92,South,180,9.8,9.8,72,0.00,,,0.00,188.0,meteobridge,2013-04-14 17:42:00,
2013-04-14 13:47:00,86.7,76.1,29.92,South,180,4.5,8.3,71,0.00,,,0.00,225.0,meteobridge,2013-04-14 17:47:00,
2013-04-14 13:52:00,86.7,75.7,29.93,SSE,158,12.1,12.1,70,0.00,,,0.00,225.0,meteobridge,2013-04-14 17:52:00,
2013-04-14 13:57:00,86.9,75.6,29.92,South,180,9.2,12.1,69,0.00,,,0.00,262.0,meteobridge,2013-04-14 17:57:00,
2013-04-14 14:02:00,87.1,75.2,29.92,South,180,12.1,12.1,68,0.00,,,0.00,262.0,meteobridge,2013-04-14 18:02:00,
2013-04-14 14:08:00,87.8,75.0,29.91,South,180,13.0,13.0,66,0.00,,,0.00,298.0,meteobridge,2013-04-14 18:08:00,
2013-04-14 14:13:00,87.8,75.0,29.91,South,180,11.4,11.4,66,0.00,,,0.00,298.0,meteobridge,2013-04-14 18:13:00,
2013-04-14 14:18:00,88.0,74.7,29.91,South,180,12.1,14.5,65,0.00,,,0.00,335.0,meteobridge,2013-04-14 18:18:00,
2013-04-14 14:23:00,88.3,75.6,29.90,South,180,9.2,9.8,66,0.00,,,0.00,335.0,meteobridge,2013-04-14 18:23:00,
2013-04-14 14:28:00,88.3,74.7,29.90,South,180,10.7,10.7,64,0.00,,,0.00,371.0,meteobridge,2013-04-14 18:28:00,
2013-04-14 14:33:00,88.2,75.4,29.90,SE,135,8.3,8.3,66,0.00,,,0.00,371.0,meteobridge,2013-04-14 18:33:00,
2013-04-14 14:39:00,88.3,73.6,29.91,SE,135,14.5,18.3,62,0.00,,,0.00,335.0,meteobridge,2013-04-14 18:39:00,
2013-04-14 14:44:00,88.3,73.2,29.91,South,180,10.7,12.1,61,0.00,,,0.00,335.0,meteobridge,2013-04-14 18:44:00,
2013-04-14 14:49:00,88.3,73.2,29.90,South,180,8.3,13.0,61,0.00,,,0.00,298.0,meteobridge,2013-04-14 18:49:00,
2013-04-14 14:54:00,88.5,72.9,29.90,South,180,7.6,13.0,60,0.00,,,0.00,298.0,meteobridge,2013-04-14 18:54:00,
2013-04-14 14:59:00,88.7,73.0,29.90,SW,225,9.8,13.6,60,0.00,,,0.00,262.0,meteobridge,2013-04-14 18:59:00,
2013-04-14 15:04:00,88.5,71.8,29.89,South,180,14.5,14.5,58,0.00,,,0.00,262.0,meteobridge,2013-04-14 19:04:00,
2013-04-14 15:09:00,87.8,71.6,29.89,SW,225,9.8,12.1,59,0.00,,,0.00,188.0,meteobridge,2013-04-14 19:09:00,
2013-04-14 15:15:00,87.6,72.5,29.89,South,180,7.6,10.7,61,0.00,,,0.00,188.0,meteobridge,2013-04-14 19:15:00,
2013-04-14 15:20:00,88.0,70.9,29.89,SW,225,12.1,14.5,57,0.00,,,0.00,152.0,meteobridge,2013-04-14 19:20:00,
2013-04-14 15:25:00,88.0,71.8,29.88,South,180,4.5,6.0,59,0.00,,,0.00,152.0,meteobridge,2013-04-14 19:25:00,
2013-04-14 15:30:00,88.0,71.8,29.88,SSW,203,13.6,13.6,59,0.00,,,0.00,78.0,meteobridge,2013-04-14 19:30:00,
2013-04-14 15:35:00,87.6,71.6,29.88,SSE,158,10.7,11.4,59,0.00,,,0.00,78.0,meteobridge,2013-04-14 19:35:00,
2013-04-14 15:40:00,87.4,71.8,29.88,SW,225,9.2,10.7,60,0.00,,,0.00,78.0,meteobridge,2013-04-14 19:40:00,
2013-04-14 15:46:00,87.3,71.6,29.88,SW,225,13.6,13.6,60,0.00,,,0.00,42.0,meteobridge,2013-04-14 19:46:00,
2013-04-14 15:51:00,86.5,71.1,29.88,South,180,15.2,15.2,60,0.00,,,0.00,42.0,meteobridge,2013-04-14 19:51:00,
2013-04-14 15:56:00,87.3,71.2,29.88,South,180,13.0,13.6,59,0.00,,,0.00,78.0,meteobridge,2013-04-14 19:56:00,
2013-04-14 16:01:00,87.6,71.1,29.88,South,180,16.8,16.8,58,0.00,,,0.00,78.0,meteobridge,2013-04-14 20:01:00,
2013-04-14 16:06:00,87.6,72.0,29.88,SW,225,11.4,11.4,60,0.00,,,0.00,115.0,meteobridge,2013-04-14 20:06:00,
2013-04-14 16:11:00,87.6,72.0,29.88,South,180,14.5,17.4,60,0.00,,,0.00,115.0,meteobridge,2013-04-14 20:11:00,
2013-04-14 16:16:00,87.4,71.8,29.87,SW,225,10.7,13.0,60,0.00,,,0.00,152.0,meteobridge,2013-04-14 20:16:00,
2013-04-14 16:22:00,87.1,71.4,29.87,South,180,11.4,15.2,60,0.00,,,0.00,152.0,meteobridge,2013-04-14 20:22:00,
2013-04-14 16:27:00,87.1,71.4,29.87,SW,225,13.0,14.5,60,0.00,,,0.00,188.0,meteobridge,2013-04-14 20:27:00,
2013-04-14 16:32:00,86.9,71.4,29.87,SE,135,12.1,13.0,60,0.00,,,0.00,188.0,meteobridge,2013-04-14 20:32:00,
2013-04-14 16:37:00,87.1,71.4,29.87,SSW,203,9.2,9.8,60,0.00,,,0.00,225.0,meteobridge,2013-04-14 20:37:00,
2013-04-14 16:42:00,87.8,71.6,29.87,SW,225,5.4,8.3,59,0.00,,,0.00,225.0,meteobridge,2013-04-14 20:42:00,
2013-04-14 16:47:00,88.2,70.5,29.87,East,90,13.0,13.6,56,0.00,,,0.00,225.0,meteobridge,2013-04-14 20:47:00,
2013-04-14 16:53:00,88.3,71.2,29.88,SW,225,13.6,13.6,57,0.00,,,0.00,225.0,meteobridge,2013-04-14 20:53:00,
2013-04-14 16:58:00,88.2,71.1,29.87,South,180,10.7,10.7,57,0.00,,,0.00,225.0,meteobridge,2013-04-14 20:58:00,
2013-04-14 17:03:00,88.0,70.9,29.88,SW,225,10.7,15.2,57,0.00,,,0.00,225.0,meteobridge,2013-04-14 21:03:00,
2013-04-14 17:08:00,87.4,70.9,29.88,SE,135,11.4,13.0,58,0.00,,,0.00,188.0,meteobridge,2013-04-14 21:08:00,
2013-04-14 17:13:00,86.9,70.3,29.88,NW,315,15.2,15.2,58,0.00,,,0.00,188.0,meteobridge,2013-04-14 21:13:00,
2013-04-14 17:18:00,86.5,71.1,29.89,SE,135,9.2,15.2,60,0.00,,,0.00,152.0,meteobridge,2013-04-14 21:18:00,
2013-04-14 17:23:00,86.4,70.9,29.89,SSW,203,14.5,14.5,60,0.00,,,0.00,152.0,meteobridge,2013-04-14 21:23:00,
2013-04-14 17:29:00,85.6,71.1,29.89,South,180,10.7,10.7,62,0.00,,,0.00,152.0,meteobridge,2013-04-14 21:29:00,
2013-04-14 17:34:00,84.9,70.9,29.89,NE,45,9.2,13.6,63,0.00,,,0.00,152.0,meteobridge,2013-04-14 21:34:00,
2013-04-14 17:39:00,84.9,70.9,29.89,South,180,15.9,15.9,63,0.00,,,0.00,188.0,meteobridge,2013-04-14 21:39:00,
2013-04-14 17:44:00,84.9,70.9,29.89,South,180,8.3,12.1,63,0.00,,,0.00,188.0,meteobridge,2013-04-14 21:44:00,
2013-04-14 17:49:00,84.6,71.4,29.89,South,180,3.8,6.9,65,0.00,,,0.00,225.0,meteobridge,2013-04-14 21:49:00,
2013-04-14 17:54:00,84.9,71.8,29.89,SE,135,5.4,6.9,65,0.00,,,0.00,225.0,meteobridge,2013-04-14 21:54:00,
2013-04-14 17:59:00,85.3,71.2,29.89,ESE,113,9.8,10.7,63,0.00,,,0.00,298.0,meteobridge,2013-04-14 21:59:00,
2013-04-14 18:05:00,85.3,70.7,29.89,South,180,6.9,15.2,62,0.00,,,0.00,298.0,meteobridge,2013-04-14 22:05:00,
2013-04-14 18:10:00,85.1,70.5,29.89,South,180,15.9,15.9,62,0.00,,,0.00,335.0,meteobridge,2013-04-14 22:10:00,
2013-04-14 18:15:00,84.9,70.9,29.89,South,180,9.2,9.2,63,0.00,,,0.00,335.0,meteobridge,2013-04-14 22:15:00,
2013-04-14 18:20:00,84.7,71.2,29.89,SW,225,12.1,13.6,64,0.00,,,0.00,335.0,meteobridge,2013-04-14 22:20:00,
2013-04-14 18:25:00,84.4,71.2,29.89,SW,225,7.6,13.0,65,0.00,,,0.00,335.0,meteobridge,2013-04-14 22:25:00,
2013-04-14 18:30:00,84.0,71.4,29.89,South,180,6.9,12.1,66,0.00,,,0.00,335.0,meteobridge,2013-04-14 22:30:00,
2013-04-14 18:36:00,83.8,71.2,29.90,West,270,8.3,13.6,66,0.00,,,0.00,335.0,meteobridge,2013-04-14 22:36:00,
2013-04-14 18:41:00,83.5,71.4,29.90,SSE,158,6.9,12.1,67,0.00,,,0.00,335.0,meteobridge,2013-04-14 22:41:00,
2013-04-14 18:46:00,83.5,71.8,29.90,West,270,3.8,6.9,68,0.00,,,0.00,,meteobridge,2013-04-14 22:46:00,
2013-04-14 18:51:00,83.1,72.3,29.90,South,180,9.8,9.8,70,0.00,,,0.00,,meteobridge,2013-04-14 22:51:00,
2013-04-14 18:56:00,82.6,72.1,29.91,South,180,8.3,8.3,71,0.00,,,0.00,,meteobridge,2013-04-14 22:56:00,
2013-04-14 19:01:00,82.4,72.5,29.91,South,180,9.2,9.2,72,0.00,,,0.00,,meteobridge,2013-04-14 23:01:00,
2013-04-14 19:06:00,81.9,72.0,29.91,SE,135,8.3,8.3,72,0.00,,,0.00,,meteobridge,2013-04-14 23:06:00,
2013-04-14 19:12:00,81.5,72.0,29.91,South,180,6.0,6.0,73,0.00,,,0.00,,meteobridge,2013-04-14 23:12:00,
2013-04-14 19:17:00,81.3,72.3,29.91,SE,135,6.0,6.0,74,0.00,,,0.00,,meteobridge,2013-04-14 23:17:00,
2013-04-14 19:22:00,81.0,73.0,29.92,North,0,10.7,10.7,77,0.00,,,0.00,,meteobridge,2013-04-14 23:22:00,
2013-04-14 19:27:00,80.6,73.4,29.92,South,180,6.0,10.7,79,0.00,,,0.00,,meteobridge,2013-04-14 23:27:00,
2013-04-14 19:32:00,80.2,74.3,29.91,South,180,9.2,9.8,82,0.00,,,0.00,,meteobridge,2013-04-14 23:32:00,
2013-04-14 19:37:00,79.9,74.7,29.91,South,180,6.9,9.8,84,0.00,,,0.00,,meteobridge,2013-04-14 23:37:00,
2013-04-14 19:42:00,79.3,74.5,29.92,SW,225,6.9,6.9,85,0.00,,,0.00,,meteobridge,2013-04-14 23:42:00,
2013-04-14 19:48:00,79.2,75.0,29.93,SW,225,9.2,10.7,87,0.00,,,0.00,,meteobridge,2013-04-14 23:48:00,
2013-04-14 19:53:00,78.8,75.0,29.92,SW,225,6.0,9.2,88,0.00,,,0.00,,meteobridge,2013-04-14 23:53:00,
2013-04-14 19:58:00,78.6,75.0,29.92,South,180,3.8,8.3,89,0.00,,,0.00,,meteobridge,2013-04-14 23:58:00,
2013-04-14 20:03:00,78.4,75.6,29.92,SW,225,6.9,7.6,91,0.00,,,0.00,,meteobridge,2013-04-15 00:03:00,
2013-04-14 20:08:00,78.3,75.4,29.92,SW,225,4.5,7.6,91,0.00,,,0.00,,meteobridge,2013-04-15 00:08:00,
2013-04-14 20:13:00,78.1,75.6,29.92,SSE,158,9.2,9.2,92,0.00,,,0.00,,meteobridge,2013-04-15 00:13:00,
2013-04-14 20:19:00,77.9,76.1,29.92,SE,135,9.2,10.7,94,0.00,,,0.00,,meteobridge,2013-04-15 00:19:00,
2013-04-14 20:24:00,77.9,76.3,29.93,SW,225,6.0,8.3,95,0.00,,,0.00,,meteobridge,2013-04-15 00:24:00,
2013-04-14 20:29:00,77.7,76.1,29.93,South,180,6.9,10.7,95,0.00,,,0.00,,meteobridge,2013-04-15 00:29:00,
2013-04-14 20:34:00,77.7,76.1,29.93,West,270,4.5,5.4,95,0.00,,,0.00,,meteobridge,2013-04-15 00:34:00,
2013-04-14 20:39:00,77.7,76.5,29.94,SW,225,4.5,6.0,96,0.00,,,0.00,,meteobridge,2013-04-15 00:39:00,
2013-04-14 20:44:00,77.7,76.5,29.94,South,180,4.5,6.0,96,0.00,,,0.00,,meteobridge,2013-04-15 00:44:00,
2013-04-14 20:50:00,77.5,76.6,29.94,South,180,3.8,6.0,97,0.00,,,0.00,,meteobridge,2013-04-15 00:50:00,
2013-04-14 20:55:00,77.5,77.0,29.95,South,180,6.0,8.3,98,0.00,,,0.00,,meteobridge,2013-04-15 00:55:00,
2013-04-14 21:00:00,77.5,77.0,29.95,SW,225,7.6,7.6,98,0.00,,,0.00,,meteobridge,2013-04-15 01:00:00,
2013-04-14 21:05:00,77.5,77.0,29.95,North,0,3.8,6.9,98,0.00,,,0.00,,meteobridge,2013-04-15 01:05:00,
2013-04-14 21:10:00,77.5,77.2,29.96,NW,315,3.1,5.4,99,0.00,,,0.00,,meteobridge,2013-04-15 01:10:00,
2013-04-14 21:15:00,77.5,77.2,29.96,West,270,3.8,3.8,99,0.00,,,0.00,,meteobridge,2013-04-15 01:15:00,
2013-04-14 21:21:00,77.5,77.0,29.96,North,0,3.8,5.4,98,0.00,,,0.00,,meteobridge,2013-04-15 01:21:00,
2013-04-14 21:26:00,77.5,77.2,29.97,SW,225,3.1,6.0,99,0.00,,,0.00,,meteobridge,2013-04-15 01:26:00,
2013-04-14 21:31:00,77.4,77.0,29.96,SW,225,5.4,5.4,99,0.00,,,0.00,,meteobridge,2013-04-15 01:31:00,
2013-04-14 21:36:00,77.4,77.0,29.96,SW,225,5.4,6.0,99,0.00,,,0.00,,meteobridge,2013-04-15 01:36:00,
2013-04-14 21:41:00,77.2,76.8,29.97,SW,225,3.8,3.8,99,0.00,,,0.00,,meteobridge,2013-04-15 01:41:00,
2013-04-14 21:46:00,77.2,76.8,29.98,West,270,3.8,3.8,99,0.00,,,0.00,,meteobridge,2013-04-15 01:46:00,
2013-04-14 21:52:00,77.2,76.8,29.99,West,270,3.8,3.8,99,0.00,,,0.00,,meteobridge,2013-04-15 01:52:00,
2013-04-14 21:57:00,77.2,76.8,30.00,North,0,6.0,6.9,99,0.00,,,0.00,,meteobridge,2013-04-15 01:57:00,
2013-04-14 22:02:00,76.5,71.2,30.02,North,0,15.2,20.6,84,0.00,,,0.00,,meteobridge,2013-04-15 02:02:00,
2013-04-14 22:07:00,74.5,67.1,30.03,East,90,16.8,16.8,78,0.00,,,0.00,,meteobridge,2013-04-15 02:07:00,
2013-04-14 22:12:00,72.3,66.2,30.03,WNW,293,11.4,11.4,81,0.00,,,0.00,,meteobridge,2013-04-15 02:12:00,
2013-04-14 22:17:00,71.6,66.2,30.03,North,0,15.2,15.2,83,0.00,,,0.00,,meteobridge,2013-04-15 02:17:00,
2013-04-14 22:22:00,71.1,66.7,30.03,NW,315,12.1,17.4,86,0.00,,,0.00,,meteobridge,2013-04-15 02:22:00,
2013-04-14 22:27:00,70.5,66.4,30.03,West,270,10.7,10.7,87,0.00,,,0.00,,meteobridge,2013-04-15 02:27:00,
2013-04-14 22:33:00,70.2,66.4,30.03,North,0,9.2,9.2,88,0.00,,,0.00,,meteobridge,2013-04-15 02:33:00,
2013-04-14 22:38:00,70.0,66.6,30.04,WNW,293,8.3,11.4,89,0.00,,,0.00,,meteobridge,2013-04-15 02:38:00,
2013-04-14 22:43:00,69.8,66.7,30.04,NW,315,7.6,7.6,90,0.00,,,0.00,,meteobridge,2013-04-15 02:43:00,
2013-04-14 22:48:00,69.8,66.7,30.03,East,90,5.4,7.6,90,0.00,,,0.00,,meteobridge,2013-04-15 02:48:00,
2013-04-14 22:53:00,69.8,67.1,30.03,NW,315,3.8,3.8,91,0.00,,,0.00,,meteobridge,2013-04-15 02:53:00,
2013-04-14 22:58:00,70.0,67.3,30.03,NW,315,3.8,4.5,91,0.00,,,0.00,,meteobridge,2013-04-15 02:58:00,
2013-04-14 23:04:00,70.0,67.3,30.03,NW,315,5.4,6.0,91,0.00,,,0.00,,meteobridge,2013-04-15 03:04:00,
2013-04-14 23:09:00,69.8,67.3,30.03,NW,315,6.0,6.0,92,0.00,,,0.00,,meteobridge,2013-04-15 03:09:00,
2013-04-14 23:14:00,69.6,67.3,30.03,North,0,6.0,6.0,92,0.00,,,0.00,,meteobridge,2013-04-15 03:14:00,
2013-04-14 23:19:00,69.8,67.3,30.03,NW,315,3.1,5.4,92,0.00,,,0.00,,meteobridge,2013-04-15 03:19:00,
2013-04-14 23:24:00,70.0,67.5,30.03,NE,45,1.6,3.8,92,0.00,,,0.00,,meteobridge,2013-04-15 03:24:00,
2013-04-14 23:29:00,70.0,66.9,30.02,North,0,5.4,5.4,90,0.00,,,0.00,,meteobridge,2013-04-15 03:29:00,
2013-04-14 23:35:00,70.2,66.4,30.02,NW,315,5.4,6.0,88,0.00,,,0.00,,meteobridge,2013-04-15 03:35:00,
2013-04-14 23:40:00,70.3,66.2,30.02,NE,45,5.4,5.4,87,0.00,,,0.00,,meteobridge,2013-04-15 03:40:00,
2013-04-14 23:45:00,70.3,65.7,30.02,NW,315,3.8,7.6,85,0.00,,,0.00,,meteobridge,2013-04-15 03:45:00,
2013-04-14 23:50:00,70.3,65.7,30.02,North,0,3.1,4.5,85,0.00,,,0.00,,meteobridge,2013-04-15 03:50:00,
2013-04-14 23:55:00,70.3,65.7,30.02,West,270,2.2,3.1,85,0.00,,,0.00,,meteobridge,2013-04-15 03:55:00,